08D

Stanley Municipal Airport

Stanley, North Dakota, USA
METAR K08D 240455Z AUTO 13007KT 10SM FEW037 FEW045 04/M03 A3010 RMK AO2
Observed Flight Rules
Oct-24 @ 04:55 UTC (7 minutes ago) Visual Flight Rules
Wind Visibility Clouds
130° at 7 knots 10 miles
  • Few at 3,700' AGL
  • Few at 4,500' AGL
Temperatures Readings
Current 4°C / 39°F
Dewpoint -3°C / 27°F
Humidity 61%
Altimeter 30.1" Hg
Pressure 1019 hPa
Elevation 684
METAR K08D 240455Z AUTO 13007KT 10SM FEW037 FEW045 04/M03 A3010 RMK AO2
Observed Flight Rules
Oct-24 @ 04:55 UTC
(7 minutes ago)
VFR
Wind Visibility
130° at 7 knots 10 miles
Clouds
  • Few at 3,700' AGL
  • Few at 4,500' AGL
Temperature Dewpoint
4°C / 39°F -3°C / 27°F
Humidity Altimeter Pressure
61% 30.1" Hg 1019 hPa